Time;durP1;ratioP1;P1;durP2;ratioP2;P2;SDS_P1;SDS_P2;PMS_P1;PMS_P2;Temp;Humidity;BMP_temperature;BMP_pressure;BME280_temperature;BME280_humidity;BME280_pressure;Samples;Min_cycle;Max_cycle;Signal;HPM_P1;HPM_P2
2023/09/21 00:01:23;;;;;;;6.80;2.50;;;;;;;;;;4957824;29;20156;-79
2023/09/21 00:03:49;;;;;;;6.20;2.80;;;;;;;;;;4958072;29;20055;-79
2023/09/21 00:06:18;;;;;;;7.90;2.58;;;;;;;;;;4942130;29;20490;-79
2023/09/21 00:08:47;;;;;;;6.78;2.40;;;;;;;;;;4957069;29;20113;-79
2023/09/21 00:11:14;;;;;;;6.40;2.20;;;;;;;;;;4938003;29;20529;-79
2023/09/21 00:13:40;;;;;;;7.07;2.50;;;;;;;;;;4956638;29;20043;-79
2023/09/21 00:16:14;;;;;;;5.50;2.20;;;;;;;;;;4955274;29;20035;-78
2023/09/21 00:18:44;;;;;;;6.95;2.40;;;;;;;;;;4946917;28;20406;-79
2023/09/21 00:21:12;;;;;;;6.78;2.50;;;;;;;;;;4953993;29;20470;-78
2023/09/21 00:23:38;;;;;;;9.77;2.60;;;;;;;;;;4956259;29;20066;-79
2023/09/21 00:26:04;;;;;;;6.35;2.47;;;;;;;;;;4957031;29;20053;-79
2023/09/21 00:28:31;;;;;;;7.38;2.55;;;;;;;;;;4956657;29;20050;-79
2023/09/21 00:30:57;;;;;;;8.20;2.65;;;;;;;;;;4956367;29;20394;-78
2023/09/21 00:33:25;;;;;;;6.55;2.67;;;;;;;;;;4941082;29;20054;-79
2023/09/21 00:35:51;;;;;;;7.70;2.58;;;;;;;;;;4956538;29;20043;-78
2023/09/21 00:38:18;;;;;;;7.75;2.70;;;;;;;;;;4955579;29;20490;-79
2023/09/21 00:40:44;;;;;;;9.98;2.42;;;;;;;;;;4957343;29;20067;-79
2023/09/21 00:43:20;;;;;;;7.10;2.30;;;;;;;;;;4957714;29;20445;-79
2023/09/21 00:45:48;;;;;;;9.52;3.08;;;;;;;;;;4957261;29;20055;-80
2023/09/21 00:48:20;;;;;;;5.63;2.33;;;;;;;;;;4956876;29;20047;-79
2023/09/21 00:50:46;;;;;;;7.72;2.13;;;;;;;;;;4953434;29;20054;-79
2023/09/21 00:53:13;;;;;;;5.90;2.17;;;;;;;;;;4958045;29;20039;-79
2023/09/21 00:55:40;;;;;;;8.98;2.80;;;;;;;;;;4957020;29;20183;-79
2023/09/21 00:58:07;;;;;;;6.20;2.53;;;;;;;;;;4956920;29;20054;-79
2023/09/21 01:00:34;;;;;;;5.90;2.30;;;;;;;;;;4956588;29;20039;-80
2023/09/21 01:03:07;;;;;;;5.75;2.30;;;;;;;;;;4956741;29;20035;-79
2023/09/21 01:05:39;;;;;;;8.98;2.50;;;;;;;;;;4956309;29;20591;-80
2023/09/21 01:08:10;;;;;;;5.57;2.63;;;;;;;;;;4957673;29;20399;-79
2023/09/21 01:10:40;;;;;;;7.70;2.73;;;;;;;;;;4952068;29;20085;-79
2023/09/21 01:13:07;;;;;;;6.60;2.50;;;;;;;;;;4951001;29;20506;-79
2023/09/21 01:15:34;;;;;;;8.05;2.55;;;;;;;;;;4940083;29;20387;-79
2023/09/21 01:18:00;;;;;;;6.88;2.65;;;;;;;;;;4955327;29;20090;-79
2023/09/21 01:20:32;;;;;;;5.05;2.20;;;;;;;;;;4957853;29;20043;-79
2023/09/21 01:23:18;;;;;;;8.63;3.03;;;;;;;;;;4956308;29;20671;-79
2023/09/21 01:25:46;;;;;;;6.68;2.80;;;;;;;;;;4956916;29;20574;-79
2023/09/21 01:28:19;;;;;;;6.80;2.40;;;;;;;;;;4958157;29;20110;-80
2023/09/21 01:30:45;;;;;;;5.50;2.50;;;;;;;;;;4960325;28;20039;-78
2023/09/21 01:33:11;;;;;;;9.25;2.67;;;;;;;;;;4960052;29;20039;-79
2023/09/21 01:35:43;;;;;;;5.90;2.60;;;;;;;;;;4944679;29;20055;-79
2023/09/21 01:38:09;;;;;;;7.93;2.80;;;;;;;;;;4961403;29;20062;-79
2023/09/21 01:40:35;;;;;;;8.30;2.67;;;;;;;;;;4960779;28;20126;-79
2023/09/21 01:43:06;;;;;;;10.50;2.58;;;;;;;;;;4960038;29;20051;-79
2023/09/21 01:45:32;;;;;;;6.60;2.60;;;;;;;;;;4926735;29;20044;-79
2023/09/21 01:48:00;;;;;;;5.45;2.45;;;;;;;;;;4961508;29;20126;-79
2023/09/21 01:50:26;;;;;;;9.65;2.95;;;;;;;;;;4961140;29;20565;-79
2023/09/21 01:52:52;;;;;;;7.22;2.65;;;;;;;;;;4940914;29;20082;-79
2023/09/21 01:55:19;;;;;;;6.55;2.20;;;;;;;;;;4959644;29;20086;-79
2023/09/21 01:57:45;;;;;;;5.88;2.20;;;;;;;;;;4958182;29;20047;-79
2023/09/21 02:00:29;;;;;;;5.65;2.30;;;;;;;;;;4960407;29;20047;-79
2023/09/21 02:02:55;;;;;;;5.63;2.40;;;;;;;;;;4957818;29;20469;-78
2023/09/21 02:05:24;;;;;;;5.68;2.30;;;;;;;;;;4941062;28;20395;-78
2023/09/21 02:07:51;;;;;;;5.78;2.20;;;;;;;;;;4957250;29;20051;-79
2023/09/21 02:10:17;;;;;;;8.77;2.58;;;;;;;;;;4939687;29;20043;-78
2023/09/21 02:12:56;;;;;;;6.43;2.22;;;;;;;;;;4958912;29;20054;-79
2023/09/21 02:15:23;;;;;;;6.05;2.25;;;;;;;;;;4960322;29;20039;-79
2023/09/21 02:17:49;;;;;;;6.03;2.10;;;;;;;;;;4960109;29;20067;-79
2023/09/21 02:20:16;;;;;;;6.55;2.10;;;;;;;;;;4955991;29;20131;-79
2023/09/21 02:22:46;;;;;;;6.90;2.40;;;;;;;;;;4959910;29;20497;-78
2023/09/21 02:25:13;;;;;;;5.82;2.30;;;;;;;;;;4960403;29;20640;-79
2023/09/21 02:27:40;;;;;;;6.40;2.20;;;;;;;;;;4959552;29;20062;-79
2023/09/21 02:30:08;;;;;;;4.78;2.17;;;;;;;;;;4943583;29;20051;-79
2023/09/21 02:32:34;;;;;;;6.68;2.10;;;;;;;;;;4959344;29;20383;-79
2023/09/21 02:35:07;;;;;;;5.75;2.10;;;;;;;;;;4939516;29;20062;-79
2023/09/21 02:37:34;;;;;;;7.07;2.10;;;;;;;;;;4936452;29;20059;-79
2023/09/21 02:40:00;;;;;;;5.85;2.30;;;;;;;;;;4943309;29;20048;-79
2023/09/21 02:42:26;;;;;;;5.80;2.20;;;;;;;;;;4958852;28;20439;-79
2023/09/21 02:44:55;;;;;;;6.05;2.00;;;;;;;;;;4942292;29;20402;-79
2023/09/21 02:47:21;;;;;;;5.30;1.90;;;;;;;;;;4959533;29;20454;-79
2023/09/21 02:49:48;;;;;;;7.28;2.33;;;;;;;;;;4960830;29;20051;-80
2023/09/21 02:52:15;;;;;;;7.55;2.20;;;;;;;;;;4958961;29;20521;-79
2023/09/21 02:54:41;;;;;;;6.53;2.42;;;;;;;;;;4959116;29;20055;-80
2023/09/21 02:57:08;;;;;;;7.22;2.25;;;;;;;;;;4941598;29;20473;-79
2023/09/21 02:59:35;;;;;;;7.03;2.35;;;;;;;;;;4942772;29;20059;-80
2023/09/21 03:02:01;;;;;;;5.00;2.00;;;;;;;;;;4960113;29;20050;-79
2023/09/21 03:04:27;;;;;;;7.25;2.03;;;;;;;;;;4958925;29;20486;-79
2023/09/21 03:06:55;;;;;;;5.55;2.00;;;;;;;;;;4960206;29;20051;-79
2023/09/21 03:09:22;;;;;;;6.75;2.17;;;;;;;;;;4958641;29;20058;-79
2023/09/21 03:11:48;;;;;;;5.22;2.10;;;;;;;;;;4959944;29;20050;-79
2023/09/21 03:14:14;;;;;;;5.90;2.10;;;;;;;;;;4958578;29;20126;-79
2023/09/21 03:16:44;;;;;;;9.30;2.20;;;;;;;;;;4926086;29;20039;-79
2023/09/21 03:19:10;;;;;;;5.65;2.20;;;;;;;;;;4958182;29;20059;-79
2023/09/21 03:21:36;;;;;;;6.53;2.20;;;;;;;;;;4960442;29;20051;-79
2023/09/21 03:24:02;;;;;;;5.28;2.03;;;;;;;;;;4959377;28;20055;-79
2023/09/21 03:26:29;;;;;;;5.18;2.05;;;;;;;;;;4942067;29;20043;-79
2023/09/21 03:28:55;;;;;;;5.80;2.40;;;;;;;;;;4959398;29;20573;-79
2023/09/21 03:31:22;;;;;;;4.93;2.05;;;;;;;;;;4958970;29;20047;-79
2023/09/21 03:33:48;;;;;;;5.88;2.45;;;;;;;;;;4957371;29;20051;-79
2023/09/21 03:36:14;;;;;;;5.95;2.20;;;;;;;;;;4958171;29;20085;-79
2023/09/21 03:38:41;;;;;;;7.28;2.45;;;;;;;;;;4959836;29;20054;-79
2023/09/21 03:41:07;;;;;;;4.53;2.17;;;;;;;;;;4940190;29;20043;-78
2023/09/21 03:43:33;;;;;;;4.85;1.90;;;;;;;;;;4958696;29;20077;-79
2023/09/21 03:45:59;;;;;;;7.15;2.28;;;;;;;;;;4938676;29;20051;-79
2023/09/21 03:48:25;;;;;;;6.78;2.50;;;;;;;;;;4958938;29;20047;-79
2023/09/21 03:50:52;;;;;;;4.50;2.08;;;;;;;;;;4956779;29;20423;-78
2023/09/21 03:53:18;;;;;;;6.93;2.70;;;;;;;;;;4957915;28;20058;-78
2023/09/21 03:55:46;;;;;;;7.20;2.35;;;;;;;;;;4955671;29;20039;-79
2023/09/21 03:58:14;;;;;;;6.10;2.28;;;;;;;;;;4941269;29;20073;-79
2023/09/21 04:00:41;;;;;;;7.63;2.60;;;;;;;;;;4941073;29;20039;-79
2023/09/21 04:03:11;;;;;;;6.13;2.45;;;;;;;;;;4959092;29;20058;-79
2023/09/21 04:05:39;;;;;;;7.03;2.20;;;;;;;;;;4956909;28;20054;-79
2023/09/21 04:08:05;;;;;;;7.32;2.13;;;;;;;;;;4957401;29;20430;-79
2023/09/21 04:10:32;;;;;;;4.93;2.33;;;;;;;;;;4938171;29;20039;-79
2023/09/21 04:13:00;;;;;;;6.93;2.67;;;;;;;;;;4951017;29;20048;-79
2023/09/21 04:15:27;;;;;;;7.03;2.50;;;;;;;;;;4950434;29;20130;-79
2023/09/21 04:17:54;;;;;;;6.72;1.95;;;;;;;;;;4953231;29;20525;-78
2023/09/21 04:20:21;;;;;;;6.82;2.47;;;;;;;;;;4937997;29;20610;-79
2023/09/21 04:22:50;;;;;;;5.20;2.10;;;;;;;;;;4954771;29;20051;-79
2023/09/21 04:25:16;;;;;;;6.53;2.22;;;;;;;;;;4957500;29;20097;-79
2023/09/21 04:27:43;;;;;;;6.80;2.40;;;;;;;;;;4958069;29;20066;-79
2023/09/21 04:30:14;;;;;;;6.25;2.00;;;;;;;;;;4957941;29;20063;-79
2023/09/21 04:32:40;;;;;;;7.43;2.42;;;;;;;;;;4956547;29;20043;-79
2023/09/21 04:35:07;;;;;;;5.72;2.30;;;;;;;;;;4956993;29;20046;-79
2023/09/21 04:37:33;;;;;;;6.88;2.50;;;;;;;;;;4953183;29;20461;-79
2023/09/21 04:40:00;;;;;;;6.15;2.17;;;;;;;;;;4956571;28;20047;-79
2023/09/21 04:42:28;;;;;;;5.10;2.10;;;;;;;;;;4952519;29;20055;-79
2023/09/21 04:44:55;;;;;;;5.32;2.03;;;;;;;;;;4938398;29;20098;-79
2023/09/21 04:47:21;;;;;;;5.25;2.28;;;;;;;;;;4954225;29;20470;-78
2023/09/21 04:49:48;;;;;;;5.63;2.30;;;;;;;;;;4956067;29;20070;-79
2023/09/21 04:52:14;;;;;;;7.32;2.33;;;;;;;;;;4957444;29;20043;-79
2023/09/21 04:54:40;;;;;;;6.45;2.30;;;;;;;;;;4956542;29;20090;-79
2023/09/21 04:57:06;;;;;;;8.30;2.40;;;;;;;;;;4955886;29;20054;-79
2023/09/21 04:59:32;;;;;;;7.60;2.60;;;;;;;;;;4952800;29;20066;-78
2023/09/21 05:01:58;;;;;;;5.22;2.30;;;;;;;;;;4955436;29;20097;-78
2023/09/21 05:04:25;;;;;;;5.13;2.35;;;;;;;;;;4953387;28;20133;-79
2023/09/21 05:06:52;;;;;;;5.28;2.45;;;;;;;;;;4954311;29;20043;-79
2023/09/21 05:09:18;;;;;;;6.43;2.50;;;;;;;;;;4953647;29;20462;-79
2023/09/21 05:11:45;;;;;;;5.28;2.40;;;;;;;;;;4953539;29;20047;-79
2023/09/21 05:14:13;;;;;;;8.52;2.45;;;;;;;;;;4953940;29;20062;-79
2023/09/21 05:16:40;;;;;;;5.60;2.47;;;;;;;;;;4953843;29;20063;-79
2023/09/21 05:19:08;;;;;;;7.10;2.60;;;;;;;;;;4938869;29;20062;-78
2023/09/21 05:21:34;;;;;;;6.78;2.53;;;;;;;;;;4955815;29;20465;-79
2023/09/21 05:24:00;;;;;;;8.75;2.72;;;;;;;;;;4956409;29;20089;-79
2023/09/21 05:26:27;;;;;;;9.65;2.60;;;;;;;;;;4956408;29;20099;-80
2023/09/21 05:28:53;;;;;;;6.90;2.80;;;;;;;;;;4955876;29;20051;-80
2023/09/21 05:31:19;;;;;;;5.13;2.33;;;;;;;;;;4953322;29;20549;-80
2023/09/21 05:33:45;;;;;;;7.38;2.33;;;;;;;;;;4956891;29;20055;-81
2023/09/21 05:36:11;;;;;;;6.22;2.60;;;;;;;;;;4956886;29;20044;-77
2023/09/21 05:38:37;;;;;;;6.97;2.70;;;;;;;;;;4948325;29;20056;-80
2023/09/21 05:41:04;;;;;;;8.07;2.47;;;;;;;;;;4955439;28;20039;-80
2023/09/21 05:43:33;;;;;;;7.22;2.60;;;;;;;;;;4956934;29;20409;-80
2023/09/21 05:45:59;;;;;;;6.00;2.33;;;;;;;;;;4953819;29;20490;-79
2023/09/21 05:48:25;;;;;;;6.63;2.38;;;;;;;;;;4955989;29;20498;-79
2023/09/21 05:50:51;;;;;;;5.85;2.40;;;;;;;;;;4938564;29;20094;-79
2023/09/21 05:53:19;;;;;;;5.03;2.40;;;;;;;;;;4952849;29;20059;-78
2023/09/21 05:55:45;;;;;;;5.55;2.30;;;;;;;;;;4955657;29;20462;-78
2023/09/21 05:58:11;;;;;;;6.05;2.47;;;;;;;;;;4954794;29;20051;-79
2023/09/21 06:00:37;;;;;;;5.32;2.35;;;;;;;;;;4936541;29;20047;-79
2023/09/21 06:03:04;;;;;;;4.95;2.33;;;;;;;;;;4954965;29;20052;-79
2023/09/21 06:05:30;;;;;;;6.50;2.20;;;;;;;;;;4952817;29;20051;-79
2023/09/21 06:07:56;;;;;;;5.68;2.20;;;;;;;;;;4953868;29;20051;-80
2023/09/21 06:10:23;;;;;;;6.10;2.10;;;;;;;;;;4954649;29;20117;-79
2023/09/21 06:12:50;;;;;;;6.07;2.10;;;;;;;;;;4950451;29;20043;-78
2023/09/21 06:15:16;;;;;;;6.32;2.33;;;;;;;;;;4953150;28;20490;-80
2023/09/21 06:17:43;;;;;;;6.13;2.13;;;;;;;;;;4957685;29;20098;-79
2023/09/21 06:20:09;;;;;;;6.70;2.80;;;;;;;;;;4939610;29;20047;-80
2023/09/21 06:22:37;;;;;;;6.82;2.42;;;;;;;;;;4942768;29;20390;-80
2023/09/21 06:25:04;;;;;;;6.57;2.15;;;;;;;;;;4943385;29;20070;-80
2023/09/21 06:27:30;;;;;;;7.20;2.30;;;;;;;;;;4960866;29;20054;-80
2023/09/21 06:29:58;;;;;;;5.88;2.47;;;;;;;;;;4960117;29;20074;-80
2023/09/21 06:32:24;;;;;;;9.40;2.10;;;;;;;;;;4960905;29;20054;-80
2023/09/21 06:34:51;;;;;;;14.13;2.30;;;;;;;;;;4943551;29;20047;-80
2023/09/21 06:37:19;;;;;;;5.30;1.92;;;;;;;;;;4943350;29;20579;-80
2023/09/21 06:39:45;;;;;;;4.72;1.75;;;;;;;;;;4940787;29;20102;-80
2023/09/21 06:42:12;;;;;;;6.55;2.42;;;;;;;;;;4962093;28;20039;-80
2023/09/21 06:44:38;;;;;;;6.15;2.10;;;;;;;;;;4952324;28;20043;-79
2023/09/21 06:47:04;;;;;;;6.72;2.08;;;;;;;;;;4966445;28;20047;-79
2023/09/21 06:49:30;;;;;;;5.03;1.90;;;;;;;;;;4941353;28;20078;-79
2023/09/21 06:51:58;;;;;;;6.72;1.85;;;;;;;;;;4968683;28;20043;-79
2023/09/21 06:54:26;;;;;;;5.13;1.98;;;;;;;;;;4958742;28;20047;-79
2023/09/21 06:56:52;;;;;;;5.60;1.88;;;;;;;;;;4959799;29;20494;-79
2023/09/21 06:59:18;;;;;;;5.68;2.00;;;;;;;;;;4957712;29;20055;-79
2023/09/21 07:01:44;;;;;;;5.57;2.10;;;;;;;;;;4922042;29;20062;-79
2023/09/21 07:04:10;;;;;;;12.32;2.55;;;;;;;;;;4955727;28;20043;-79
2023/09/21 07:06:37;;;;;;;11.05;2.90;;;;;;;;;;4957310;29;20058;-79
2023/09/21 07:09:04;;;;;;;22.17;5.00;;;;;;;;;;4941615;28;20106;-79
2023/09/21 07:11:30;;;;;;;11.65;2.63;;;;;;;;;;4952079;28;20054;-79
2023/09/21 07:13:56;;;;;;;5.57;2.38;;;;;;;;;;4942766;29;20039;-79
2023/09/21 07:16:22;;;;;;;8.10;2.22;;;;;;;;;;4958883;28;20101;-79
2023/09/21 07:18:49;;;;;;;5.13;2.05;;;;;;;;;;4956430;28;20055;-79
2023/09/21 07:21:15;;;;;;;5.82;2.05;;;;;;;;;;4956538;28;20490;-79
2023/09/21 07:23:41;;;;;;;7.70;2.20;;;;;;;;;;4956200;29;20048;-78
2023/09/21 07:26:08;;;;;;;6.35;2.13;;;;;;;;;;4961670;28;20117;-80
2023/09/21 07:28:34;;;;;;;5.35;2.17;;;;;;;;;;4967492;28;20051;-79
2023/09/21 07:31:01;;;;;;;6.38;2.30;;;;;;;;;;4956303;29;20054;-77
2023/09/21 07:33:30;;;;;;;8.30;2.17;;;;;;;;;;4955065;28;20356;-77
2023/09/21 07:35:56;;;;;;;5.97;2.00;;;;;;;;;;4952520;29;20098;-79
2023/09/21 07:38:23;;;;;;;5.90;2.10;;;;;;;;;;4957067;28;20110;-79
2023/09/21 07:40:49;;;;;;;5.80;2.22;;;;;;;;;;4953980;29;20047;-80
2023/09/21 07:43:16;;;;;;;5.75;2.30;;;;;;;;;;4958395;29;20114;-79
2023/09/21 07:45:42;;;;;;;5.15;1.92;;;;;;;;;;4958608;28;20055;-79
2023/09/21 07:48:08;;;;;;;5.45;2.10;;;;;;;;;;4958718;29;20063;-79
2023/09/21 07:50:35;;;;;;;6.85;2.35;;;;;;;;;;4958458;29;20043;-79
2023/09/21 07:53:04;;;;;;;6.53;2.20;;;;;;;;;;4959083;29;20052;-78
2023/09/21 07:55:30;;;;;;;7.10;2.30;;;;;;;;;;4957907;29;20110;-79
2023/09/21 07:57:56;;;;;;;4.93;2.00;;;;;;;;;;4958886;29;20143;-79
2023/09/21 08:00:23;;;;;;;7.50;2.40;;;;;;;;;;4958885;29;20384;-79
2023/09/21 08:02:49;;;;;;;4.82;1.90;;;;;;;;;;4941381;29;20106;-80
2023/09/21 08:05:15;;;;;;;7.07;2.20;;;;;;;;;;4957649;29;20466;-79
2023/09/21 08:07:42;;;;;;;6.15;2.28;;;;;;;;;;4958622;29;20051;-79
2023/09/21 08:10:10;;;;;;;7.70;2.35;;;;;;;;;;4958472;29;20391;-79
2023/09/21 08:12:38;;;;;;;5.20;2.33;;;;;;;;;;4958434;29;20047;-79
2023/09/21 08:15:06;;;;;;;6.65;2.22;;;;;;;;;;4957303;29;20059;-80
2023/09/21 08:17:32;;;;;;;5.80;2.25;;;;;;;;;;4954390;29;20529;-80
2023/09/21 08:19:59;;;;;;;5.90;2.38;;;;;;;;;;4939402;29;20415;-80
2023/09/21 08:22:28;;;;;;;6.15;2.00;;;;;;;;;;4940163;29;20051;-79
2023/09/21 08:24:55;;;;;;;6.97;2.65;;;;;;;;;;4958485;29;20078;-79
2023/09/21 08:27:22;;;;;;;8.93;2.65;;;;;;;;;;4958416;29;20118;-80
2023/09/21 08:29:49;;;;;;;6.53;2.50;;;;;;;;;;4958297;29;20051;-79
2023/09/21 08:32:15;;;;;;;5.70;2.38;;;;;;;;;;4957324;29;20477;-79
2023/09/21 08:34:44;;;;;;;6.03;2.55;;;;;;;;;;4922788;29;20055;-80
2023/09/21 08:37:10;;;;;;;7.40;2.28;;;;;;;;;;4939066;29;20067;-80
2023/09/21 08:39:36;;;;;;;6.13;2.30;;;;;;;;;;4938391;29;20127;-79
2023/09/21 08:42:02;;;;;;;6.75;2.20;;;;;;;;;;4921973;29;20051;-79
2023/09/21 08:44:29;;;;;;;5.97;2.47;;;;;;;;;;4941851;29;20051;-80
2023/09/21 08:46:56;;;;;;;5.85;2.63;;;;;;;;;;4957631;29;20478;-80
2023/09/21 08:49:23;;;;;;;7.65;2.25;;;;;;;;;;4956347;29;20043;-79
2023/09/21 08:51:52;;;;;;;6.13;2.63;;;;;;;;;;4957787;29;20087;-80
2023/09/21 08:54:19;;;;;;;7.25;2.40;;;;;;;;;;4957923;29;20055;-79
2023/09/21 08:56:47;;;;;;;5.50;2.28;;;;;;;;;;4958635;29;20057;-79
2023/09/21 08:59:14;;;;;;;6.82;2.50;;;;;;;;;;4957579;29;20051;-79
2023/09/21 09:01:40;;;;;;;5.40;2.58;;;;;;;;;;4941373;29;20415;-80
2023/09/21 09:04:06;;;;;;;6.65;2.42;;;;;;;;;;4958579;29;20046;-80
2023/09/21 09:06:32;;;;;;;5.53;2.40;;;;;;;;;;4958541;29;20106;-80
2023/09/21 09:08:59;;;;;;;5.30;2.40;;;;;;;;;;4957824;29;20043;-79
2023/09/21 09:11:40;;;;;;;5.75;2.13;;;;;;;;;;4940887;29;20046;-80
2023/09/21 09:14:11;;;;;;;8.85;2.40;;;;;;;;;;4957853;29;20043;-80
2023/09/21 09:16:37;;;;;;;8.27;2.50;;;;;;;;;;4958118;29;20070;-79
2023/09/21 09:19:07;;;;;;;7.82;2.55;;;;;;;;;;4957859;29;20078;-80
2023/09/21 09:21:33;;;;;;;6.78;2.25;;;;;;;;;;4957227;29;20051;-80
2023/09/21 09:24:00;;;;;;;5.78;2.10;;;;;;;;;;4957499;29;20058;-79
2023/09/21 09:26:26;;;;;;;7.30;2.28;;;;;;;;;;4940090;29;20130;-80
2023/09/21 09:29:03;;;;;;;8.10;2.65;;;;;;;;;;4956325;29;20051;-80
2023/09/21 09:31:29;;;;;;;9.38;2.58;;;;;;;;;;4957365;29;20486;-80
2023/09/21 09:33:57;;;;;;;5.45;2.30;;;;;;;;;;4957208;29;20065;-79
2023/09/21 09:36:24;;;;;;;6.03;2.30;;;;;;;;;;4957166;29;20055;-79
2023/09/21 09:38:50;;;;;;;6.22;2.63;;;;;;;;;;4940305;29;20051;-79
2023/09/21 09:41:18;;;;;;;7.88;2.58;;;;;;;;;;4956861;28;20052;-79
2023/09/21 09:43:50;;;;;;;6.15;2.40;;;;;;;;;;4938281;29;20054;-79
2023/09/21 09:46:22;;;;;;;6.28;2.53;;;;;;;;;;4954941;29;20241;-79
2023/09/21 09:48:49;;;;;;;6.10;2.30;;;;;;;;;;4956499;29;20070;-79
2023/09/21 09:51:17;;;;;;;7.07;2.80;;;;;;;;;;4924352;29;20087;-78
2023/09/21 09:53:43;;;;;;;6.50;2.65;;;;;;;;;;4959887;29;20047;-79
2023/09/21 09:56:10;;;;;;;6.07;2.50;;;;;;;;;;4958938;29;20078;-79
2023/09/21 09:58:41;;;;;;;7.55;2.60;;;;;;;;;;4958298;29;20168;-79
2023/09/21 10:01:09;;;;;;;6.78;2.78;;;;;;;;;;4958845;29;20055;-79
2023/09/21 10:03:37;;;;;;;6.47;2.55;;;;;;;;;;4958091;29;20127;-78
2023/09/21 10:06:05;;;;;;;7.57;2.45;;;;;;;;;;4921509;29;20415;-79
2023/09/21 10:08:32;;;;;;;8.00;2.40;;;;;;;;;;4939048;29;20098;-79
2023/09/21 10:11:01;;;;;;;7.10;2.80;;;;;;;;;;4927819;29;20044;-79
2023/09/21 10:13:27;;;;;;;6.65;2.53;;;;;;;;;;4958444;29;20156;-79
2023/09/21 10:16:06;;;;;;;6.88;2.80;;;;;;;;;;4957436;29;20135;-79
2023/09/21 10:18:40;;;;;;;6.75;2.28;;;;;;;;;;4958218;29;20062;-79
2023/09/21 10:21:25;;;;;;;8.07;2.72;;;;;;;;;;4957397;29;20051;-79
2023/09/21 10:24:09;;;;;;;6.45;3.10;;;;;;;;;;4957345;29;20055;-79
2023/09/21 10:26:38;;;;;;;7.55;2.72;;;;;;;;;;4956745;29;20139;-78
2023/09/21 10:29:05;;;;;;;5.95;3.05;;;;;;;;;;4962589;29;20471;-78
2023/09/21 10:31:38;;;;;;;7.28;3.33;;;;;;;;;;4956892;29;20043;-79
2023/09/21 10:34:04;;;;;;;6.90;2.80;;;;;;;;;;4957680;29;20050;-79
2023/09/21 10:36:30;;;;;;;5.70;2.72;;;;;;;;;;4956716;29;20055;-78
2023/09/21 10:39:12;;;;;;;6.25;2.90;;;;;;;;;;4957107;29;20051;-78
2023/09/21 10:41:45;;;;;;;7.65;3.20;;;;;;;;;;4957382;29;20051;-78
2023/09/21 10:44:12;;;;;;;6.68;3.38;;;;;;;;;;4957427;29;20053;-79
2023/09/21 10:46:39;;;;;;;7.10;3.45;;;;;;;;;;4957569;29;20083;-78
2023/09/21 10:49:08;;;;;;;6.38;3.20;;;;;;;;;;4956402;29;20450;-78
2023/09/21 10:51:34;;;;;;;9.65;3.63;;;;;;;;;;4937844;29;20039;-79
2023/09/21 10:54:03;;;;;;;8.40;3.58;;;;;;;;;;4939909;29;20051;-78
2023/09/21 10:56:31;;;;;;;7.60;3.80;;;;;;;;;;4956957;29;20058;-78
2023/09/21 10:58:57;;;;;;;8.35;3.70;;;;;;;;;;4957094;29;20055;-78
2023/09/21 11:01:23;;;;;;;8.00;3.88;;;;;;;;;;4956441;29;20043;-78
2023/09/21 11:03:50;;;;;;;6.78;3.90;;;;;;;;;;4937078;29;20050;-78
2023/09/21 11:06:19;;;;;;;8.73;4.10;;;;;;;;;;4955707;29;20047;-78
2023/09/21 11:08:46;;;;;;;7.97;4.35;;;;;;;;;;4956833;29;20043;-78
2023/09/21 11:11:13;;;;;;;7.45;4.22;;;;;;;;;;4939443;29;20179;-77
2023/09/21 11:13:39;;;;;;;7.53;3.83;;;;;;;;;;4957284;29;20455;-79
2023/09/21 11:16:06;;;;;;;8.70;4.30;;;;;;;;;;4939032;29;20051;-78
2023/09/21 11:18:32;;;;;;;9.68;4.28;;;;;;;;;;4951651;29;20074;-78
2023/09/21 11:20:59;;;;;;;7.97;4.30;;;;;;;;;;4939416;29;20055;-78
2023/09/21 11:23:25;;;;;;;8.43;4.30;;;;;;;;;;4955801;29;20050;-78
2023/09/21 11:25:51;;;;;;;8.82;4.60;;;;;;;;;;4937940;29;20094;-78
2023/09/21 11:28:22;;;;;;;9.32;4.18;;;;;;;;;;4956423;29;20047;-78
2023/09/21 11:30:51;;;;;;;8.70;4.00;;;;;;;;;;4938993;29;20051;-78
2023/09/21 11:33:20;;;;;;;8.38;4.38;;;;;;;;;;4954851;29;20078;-78
2023/09/21 11:35:47;;;;;;;8.93;4.20;;;;;;;;;;4956156;29;20051;-79
2023/09/21 11:38:14;;;;;;;7.90;4.30;;;;;;;;;;4956023;29;20118;-78
2023/09/21 11:40:40;;;;;;;7.40;4.05;;;;;;;;;;4954713;28;20061;-78
2023/09/21 11:43:10;;;;;;;6.95;3.72;;;;;;;;;;4953829;29;20070;-78
2023/09/21 11:45:37;;;;;;;7.00;3.53;;;;;;;;;;4955377;29;20413;-78
2023/09/21 11:48:03;;;;;;;6.32;2.60;;;;;;;;;;4923707;29;20055;-78
2023/09/21 11:50:34;;;;;;;4.82;2.45;;;;;;;;;;4955796;29;20051;-78
2023/09/21 11:53:06;;;;;;;5.25;2.33;;;;;;;;;;4955199;29;20394;-79
2023/09/21 11:55:32;;;;;;;5.10;2.13;;;;;;;;;;4955601;29;20051;-78
2023/09/21 11:58:07;;;;;;;5.43;1.70;;;;;;;;;;4955628;29;20054;-78
2023/09/21 12:00:49;;;;;;;4.22;1.60;;;;;;;;;;4954604;29;20057;-78
2023/09/21 12:03:16;;;;;;;6.45;1.52;;;;;;;;;;4955142;29;20043;-79
2023/09/21 12:05:43;;;;;;;3.85;1.48;;;;;;;;;;4956632;29;20054;-78
2023/09/21 12:08:10;;;;;;;4.78;1.67;;;;;;;;;;4956914;29;20066;-78
2023/09/21 12:10:36;;;;;;;3.90;1.70;;;;;;;;;;4956109;29;20061;-78
2023/09/21 12:13:03;;;;;;;3.80;1.60;;;;;;;;;;4910084;29;20050;-78
2023/09/21 12:15:29;;;;;;;5.45;1.50;;;;;;;;;;4931577;29;20110;-78
2023/09/21 12:17:56;;;;;;;4.53;1.80;;;;;;;;;;4954992;29;20058;-78
2023/09/21 12:20:23;;;;;;;4.85;1.80;;;;;;;;;;4955072;29;20051;-79
2023/09/21 12:22:50;;;;;;;3.95;1.40;;;;;;;;;;4945396;29;20087;-79
2023/09/21 12:25:16;;;;;;;4.25;1.70;;;;;;;;;;4947915;29;21819;-78
2023/09/21 12:27:45;;;;;;;3.65;1.65;;;;;;;;;;4954217;29;20103;-79
2023/09/21 12:30:12;;;;;;;3.55;1.50;;;;;;;;;;4953922;29;20074;-78
2023/09/21 12:32:41;;;;;;;4.90;1.77;;;;;;;;;;4955905;29;20067;-78
2023/09/21 12:35:08;;;;;;;4.07;1.80;;;;;;;;;;4956395;29;20091;-79
2023/09/21 12:37:36;;;;;;;5.15;1.90;;;;;;;;;;4955005;29;20055;-79
2023/09/21 12:40:06;;;;;;;6.97;1.95;;;;;;;;;;4954749;28;20047;-79
2023/09/21 12:42:32;;;;;;;4.30;1.85;;;;;;;;;;4956756;29;20053;-78
2023/09/21 12:44:58;;;;;;;4.65;1.60;;;;;;;;;;4937196;29;20051;-78
2023/09/21 12:47:25;;;;;;;3.85;1.58;;;;;;;;;;4953911;28;20051;-79
2023/09/21 12:49:51;;;;;;;5.38;1.63;;;;;;;;;;4962218;28;20057;-79
2023/09/21 12:52:18;;;;;;;3.70;1.50;;;;;;;;;;4937665;29;20051;-78
2023/09/21 12:54:44;;;;;;;4.13;1.40;;;;;;;;;;4954259;29;20058;-79
2023/09/21 12:57:15;;;;;;;4.55;1.27;;;;;;;;;;4951691;28;20051;-79
2023/09/21 12:59:41;;;;;;;3.08;1.13;;;;;;;;;;4954716;29;20099;-78
2023/09/21 13:02:08;;;;;;;3.72;1.17;;;;;;;;;;4932625;29;20055;-79
2023/09/21 13:04:35;;;;;;;4.53;1.20;;;;;;;;;;4953986;29;20517;-78
2023/09/21 13:07:02;;;;;;;2.72;1.10;;;;;;;;;;4959838;28;20078;-78
2023/09/21 13:09:28;;;;;;;2.90;1.00;;;;;;;;;;4973829;28;20058;-78
2023/09/21 13:11:55;;;;;;;2.55;0.80;;;;;;;;;;4954771;28;20130;-78
2023/09/21 13:14:21;;;;;;;2.45;0.88;;;;;;;;;;4934693;29;20138;-78
2023/09/21 13:16:47;;;;;;;2.80;0.80;;;;;;;;;;4952108;29;20127;-79
2023/09/21 13:19:14;;;;;;;1.83;0.70;;;;;;;;;;4954658;29;20082;-78
2023/09/21 13:21:41;;;;;;;3.45;0.80;;;;;;;;;;4950983;29;20078;-79
2023/09/21 13:24:10;;;;;;;1.58;0.60;;;;;;;;;;4956675;28;20358;-79
2023/09/21 13:26:37;;;;;;;2.35;0.70;;;;;;;;;;4956462;28;20055;-79
2023/09/21 13:29:03;;;;;;;1.90;0.50;;;;;;;;;;4927168;29;20138;-79
2023/09/21 13:31:29;;;;;;;2.67;0.65;;;;;;;;;;4960898;29;20052;-79
2023/09/21 13:33:56;;;;;;;2.53;0.80;;;;;;;;;;4959874;28;20039;-79
2023/09/21 13:36:23;;;;;;;2.88;0.80;;;;;;;;;;4957310;29;20057;-79
2023/09/21 13:38:51;;;;;;;1.20;0.60;;;;;;;;;;4957049;29;21188;-79
2023/09/21 13:41:18;;;;;;;2.33;0.80;;;;;;;;;;4958458;29;20047;-79
2023/09/21 13:43:44;;;;;;;1.98;0.80;;;;;;;;;;4958658;28;20054;-77
2023/09/21 13:46:10;;;;;;;2.20;0.70;;;;;;;;;;4959428;29;20065;-78
2023/09/21 13:48:37;;;;;;;1.77;0.70;;;;;;;;;;4957389;29;20051;-79
2023/09/21 13:51:04;;;;;;;2.35;0.80;;;;;;;;;;4955948;29;20051;-78
2023/09/21 13:53:30;;;;;;;1.88;0.60;;;;;;;;;;4960739;28;20450;-78
2023/09/21 13:55:59;;;;;;;4.40;0.82;;;;;;;;;;4967945;28;20046;-78
2023/09/21 13:58:25;;;;;;;4.13;0.80;;;;;;;;;;4961773;28;20102;-78
2023/09/21 14:00:52;;;;;;;2.38;0.73;;;;;;;;;;4967405;28;20402;-78
2023/09/21 14:03:19;;;;;;;3.40;0.85;;;;;;;;;;4964090;28;20126;-79
2023/09/21 14:05:45;;;;;;;2.67;0.93;;;;;;;;;;4962354;28;20043;-79
2023/09/21 14:08:11;;;;;;;2.22;0.80;;;;;;;;;;4967147;28;20469;-79
2023/09/21 14:10:38;;;;;;;2.25;0.90;;;;;;;;;;4961762;28;20066;-78
2023/09/21 14:13:05;;;;;;;1.73;0.70;;;;;;;;;;4962740;28;20153;-78
2023/09/21 14:15:31;;;;;;;2.58;0.80;;;;;;;;;;4946762;28;20090;-78
2023/09/21 14:17:57;;;;;;;3.03;0.90;;;;;;;;;;4965109;28;20039;-79
2023/09/21 14:20:23;;;;;;;1.85;0.70;;;;;;;;;;4962291;28;20547;-79
2023/09/21 14:22:49;;;;;;;1.92;0.70;;;;;;;;;;4951997;28;20061;-78
2023/09/21 14:25:16;;;;;;;3.10;0.77;;;;;;;;;;4962216;28;20059;-79
2023/09/21 14:27:42;;;;;;;3.08;0.90;;;;;;;;;;4962828;28;20046;-78
2023/09/21 14:30:09;;;;;;;3.28;1.00;;;;;;;;;;4963988;28;20047;-79
2023/09/21 14:32:35;;;;;;;2.30;0.98;;;;;;;;;;4961213;28;20086;-79
2023/09/21 14:35:02;;;;;;;3.05;0.90;;;;;;;;;;4962725;28;20659;-79
2023/09/21 14:37:28;;;;;;;3.17;1.00;;;;;;;;;;4961248;28;20043;-79
2023/09/21 14:39:56;;;;;;;3.75;1.15;;;;;;;;;;4964673;28;20134;-79
2023/09/21 14:42:23;;;;;;;2.33;0.95;;;;;;;;;;4962422;28;20055;-79
2023/09/21 14:44:50;;;;;;;3.60;1.10;;;;;;;;;;4941043;28;20098;-79